sensor_id;sensor_type;location;lat;lon;timestamp;temperature;humidity
20732;DHT22;10527;52.124;5.196;2023-02-28T00:01:40;3.20;99.90
20732;DHT22;10527;52.124;5.196;2023-02-28T00:04:06;3.30;99.90
20732;DHT22;10527;52.124;5.196;2023-02-28T00:06:35;3.20;99.90
20732;DHT22;10527;52.124;5.196;2023-02-28T00:09:02;3.30;99.90
20732;DHT22;10527;52.124;5.196;2023-02-28T00:11:29;3.30;99.90
20732;DHT22;10527;52.124;5.196;2023-02-28T00:13:59;3.30;99.90
20732;DHT22;10527;52.124;5.196;2023-02-28T00:16:26;3.40;99.90
20732;DHT22;10527;52.124;5.196;2023-02-28T00:18:53;3.40;99.90
20732;DHT22;10527;52.124;5.196;2023-02-28T00:21:20;3.40;99.90
20732;DHT22;10527;52.124;5.196;2023-02-28T00:23:47;3.40;99.90
20732;DHT22;10527;52.124;5.196;2023-02-28T00:26:14;3.40;99.90
20732;DHT22;10527;52.124;5.196;2023-02-28T00:28:41;3.40;99.90
20732;DHT22;10527;52.124;5.196;2023-02-28T00:31:08;3.40;99.90
20732;DHT22;10527;52.124;5.196;2023-02-28T00:33:35;3.40;99.90
20732;DHT22;10527;52.124;5.196;2023-02-28T00:36:07;3.30;99.90
20732;DHT22;10527;52.124;5.196;2023-02-28T00:38:37;3.40;99.90
20732;DHT22;10527;52.124;5.196;2023-02-28T00:41:05;3.50;99.90
20732;DHT22;10527;52.124;5.196;2023-02-28T00:43:34;3.50;99.90
20732;DHT22;10527;52.124;5.196;2023-02-28T00:46:09;3.50;99.90
20732;DHT22;10527;52.124;5.196;2023-02-28T00:48:36;3.50;99.90
20732;DHT22;10527;52.124;5.196;2023-02-28T00:51:04;3.40;99.90
20732;DHT22;10527;52.124;5.196;2023-02-28T00:53:31;3.50;99.90
20732;DHT22;10527;52.124;5.196;2023-02-28T00:55:59;3.50;99.90
20732;DHT22;10527;52.124;5.196;2023-02-28T00:58:29;3.50;99.90
20732;DHT22;10527;52.124;5.196;2023-02-28T01:00:59;3.50;99.90
20732;DHT22;10527;52.124;5.196;2023-02-28T01:03:25;3.50;99.90
20732;DHT22;10527;52.124;5.196;2023-02-28T01:05:52;3.60;99.90
20732;DHT22;10527;52.124;5.196;2023-02-28T01:08:20;3.60;99.90
20732;DHT22;10527;52.124;5.196;2023-02-28T01:10:47;3.60;99.90
20732;DHT22;10527;52.124;5.196;2023-02-28T01:13:14;3.70;99.90
20732;DHT22;10527;52.124;5.196;2023-02-28T01:15:46;3.70;99.90
20732;DHT22;10527;52.124;5.196;2023-02-28T01:18:24;3.70;99.90
20732;DHT22;10527;52.124;5.196;2023-02-28T01:20:51;3.60;99.90
20732;DHT22;10527;52.124;5.196;2023-02-28T01:23:20;3.60;99.90
20732;DHT22;10527;52.124;5.196;2023-02-28T01:25:52;3.60;99.90
20732;DHT22;10527;52.124;5.196;2023-02-28T01:28:19;3.60;99.90
20732;DHT22;10527;52.124;5.196;2023-02-28T01:30:50;3.60;99.90
20732;DHT22;10527;52.124;5.196;2023-02-28T01:33:21;3.60;99.90
20732;DHT22;10527;52.124;5.196;2023-02-28T01:35:56;3.70;99.90
20732;DHT22;10527;52.124;5.196;2023-02-28T01:38:24;3.70;99.90
20732;DHT22;10527;52.124;5.196;2023-02-28T01:40:54;3.70;99.90
20732;DHT22;10527;52.124;5.196;2023-02-28T01:43:30;3.70;99.90
20732;DHT22;10527;52.124;5.196;2023-02-28T01:45:59;3.70;99.90
20732;DHT22;10527;52.124;5.196;2023-02-28T01:48:32;3.70;99.90
20732;DHT22;10527;52.124;5.196;2023-02-28T01:51:08;3.70;99.90
20732;DHT22;10527;52.124;5.196;2023-02-28T01:53:44;3.80;99.90
20732;DHT22;10527;52.124;5.196;2023-02-28T01:56:19;3.70;99.90
20732;DHT22;10527;52.124;5.196;2023-02-28T01:58:54;3.80;99.90
20732;DHT22;10527;52.124;5.196;2023-02-28T02:01:22;3.70;99.90
20732;DHT22;10527;52.124;5.196;2023-02-28T02:03:54;3.80;99.90
20732;DHT22;10527;52.124;5.196;2023-02-28T02:06:25;3.80;99.90
20732;DHT22;10527;52.124;5.196;2023-02-28T02:08:56;3.80;99.90
20732;DHT22;10527;52.124;5.196;2023-02-28T02:11:25;3.80;99.90
20732;DHT22;10527;52.124;5.196;2023-02-28T02:23:57;3.70;99.90
20732;DHT22;10527;52.124;5.196;2023-02-28T02:33:38;3.70;99.90
20732;DHT22;10527;52.124;5.196;2023-02-28T02:36:20;3.70;99.90
20732;DHT22;10527;52.124;5.196;2023-02-28T02:39:10;3.70;99.90
20732;DHT22;10527;52.124;5.196;2023-02-28T02:41:54;3.70;99.90
20732;DHT22;10527;52.124;5.196;2023-02-28T02:44:30;3.70;99.90
20732;DHT22;10527;52.124;5.196;2023-02-28T02:47:09;3.70;99.90
20732;DHT22;10527;52.124;5.196;2023-02-28T02:49:44;3.70;99.90
20732;DHT22;10527;52.124;5.196;2023-02-28T02:52:18;3.70;99.90
20732;DHT22;10527;52.124;5.196;2023-02-28T02:54:50;3.70;99.90
20732;DHT22;10527;52.124;5.196;2023-02-28T02:57:33;3.80;99.90
20732;DHT22;10527;52.124;5.196;2023-02-28T03:00:06;3.80;99.90
20732;DHT22;10527;52.124;5.196;2023-02-28T03:02:36;3.80;99.90
20732;DHT22;10527;52.124;5.196;2023-02-28T03:05:20;3.80;99.90
20732;DHT22;10527;52.124;5.196;2023-02-28T03:07:51;3.80;99.90
20732;DHT22;10527;52.124;5.196;2023-02-28T03:17:00;3.90;99.90
20732;DHT22;10527;52.124;5.196;2023-02-28T03:20:04;3.90;99.90
20732;DHT22;10527;52.124;5.196;2023-02-28T03:22:52;3.90;99.90
20732;DHT22;10527;52.124;5.196;2023-02-28T03:25:48;3.90;99.90
20732;DHT22;10527;52.124;5.196;2023-02-28T03:28:31;3.90;99.90
20732;DHT22;10527;52.124;5.196;2023-02-28T03:33:51;3.90;99.90
20732;DHT22;10527;52.124;5.196;2023-02-28T03:36:29;3.90;99.90
20732;DHT22;10527;52.124;5.196;2023-02-28T03:39:03;3.90;99.90
20732;DHT22;10527;52.124;5.196;2023-02-28T03:41:53;3.90;99.90
20732;DHT22;10527;52.124;5.196;2023-02-28T03:47:32;3.90;99.90
20732;DHT22;10527;52.124;5.196;2023-02-28T03:52:51;3.90;99.90
20732;DHT22;10527;52.124;5.196;2023-02-28T03:55:47;3.90;99.90
20732;DHT22;10527;52.124;5.196;2023-02-28T04:04:05;4.00;99.90
20732;DHT22;10527;52.124;5.196;2023-02-28T04:06:33;4.00;99.90
20732;DHT22;10527;52.124;5.196;2023-02-28T04:09:01;3.90;99.90
20732;DHT22;10527;52.124;5.196;2023-02-28T04:11:42;3.90;99.90
20732;DHT22;10527;52.124;5.196;2023-02-28T04:14:15;3.90;99.90
20732;DHT22;10527;52.124;5.196;2023-02-28T04:16:42;3.90;99.90
20732;DHT22;10527;52.124;5.196;2023-02-28T04:19:11;4.00;99.90
20732;DHT22;10527;52.124;5.196;2023-02-28T04:21:42;3.90;99.90
20732;DHT22;10527;52.124;5.196;2023-02-28T04:24:16;4.00;99.90
20732;DHT22;10527;52.124;5.196;2023-02-28T04:26:46;3.90;99.90
20732;DHT22;10527;52.124;5.196;2023-02-28T04:29:21;3.90;99.90
20732;DHT22;10527;52.124;5.196;2023-02-28T04:31:57;3.90;99.90
20732;DHT22;10527;52.124;5.196;2023-02-28T04:34:27;3.90;99.90
20732;DHT22;10527;52.124;5.196;2023-02-28T04:36:55;3.90;99.90
20732;DHT22;10527;52.124;5.196;2023-02-28T04:39:38;3.90;99.90
20732;DHT22;10527;52.124;5.196;2023-02-28T04:42:06;3.90;99.90
20732;DHT22;10527;52.124;5.196;2023-02-28T04:44:36;3.90;99.90
20732;DHT22;10527;52.124;5.196;2023-02-28T04:47:02;3.90;99.90
20732;DHT22;10527;52.124;5.196;2023-02-28T04:49:29;3.90;99.90
20732;DHT22;10527;52.124;5.196;2023-02-28T04:51:56;4.00;99.90
20732;DHT22;10527;52.124;5.196;2023-02-28T04:54:26;3.90;99.90
20732;DHT22;10527;52.124;5.196;2023-02-28T04:56:56;3.90;99.90
20732;DHT22;10527;52.124;5.196;2023-02-28T04:59:22;3.80;99.90
20732;DHT22;10527;52.124;5.196;2023-02-28T05:01:49;3.80;99.90
20732;DHT22;10527;52.124;5.196;2023-02-28T05:04:16;3.80;99.90
20732;DHT22;10527;52.124;5.196;2023-02-28T05:06:44;3.70;99.90
20732;DHT22;10527;52.124;5.196;2023-02-28T05:09:16;3.80;99.90
20732;DHT22;10527;52.124;5.196;2023-02-28T05:11:43;3.80;99.90
20732;DHT22;10527;52.124;5.196;2023-02-28T05:14:12;3.80;99.90
20732;DHT22;10527;52.124;5.196;2023-02-28T05:16:40;3.80;99.90
20732;DHT22;10527;52.124;5.196;2023-02-28T05:19:09;3.70;99.90
20732;DHT22;10527;52.124;5.196;2023-02-28T05:21:41;3.70;99.90
20732;DHT22;10527;52.124;5.196;2023-02-28T05:24:19;3.80;99.90
20732;DHT22;10527;52.124;5.196;2023-02-28T05:26:51;3.80;99.90
20732;DHT22;10527;52.124;5.196;2023-02-28T05:29:19;3.70;99.90
20732;DHT22;10527;52.124;5.196;2023-02-28T05:31:47;3.80;99.90
20732;DHT22;10527;52.124;5.196;2023-02-28T05:34:14;3.70;99.90
20732;DHT22;10527;52.124;5.196;2023-02-28T05:36:45;3.80;99.90
20732;DHT22;10527;52.124;5.196;2023-02-28T05:39:12;3.70;99.90
20732;DHT22;10527;52.124;5.196;2023-02-28T05:41:43;3.60;99.90
20732;DHT22;10527;52.124;5.196;2023-02-28T05:44:10;3.60;99.90
20732;DHT22;10527;52.124;5.196;2023-02-28T05:46:38;3.60;99.90
20732;DHT22;10527;52.124;5.196;2023-02-28T05:49:08;3.60;99.90
20732;DHT22;10527;52.124;5.196;2023-02-28T05:51:35;3.60;99.90
20732;DHT22;10527;52.124;5.196;2023-02-28T05:54:06;3.60;99.90
20732;DHT22;10527;52.124;5.196;2023-02-28T05:56:33;3.50;99.90
20732;DHT22;10527;52.124;5.196;2023-02-28T05:59:10;3.50;99.90
20732;DHT22;10527;52.124;5.196;2023-02-28T06:01:42;3.50;99.90
20732;DHT22;10527;52.124;5.196;2023-02-28T06:04:19;3.50;99.90
20732;DHT22;10527;52.124;5.196;2023-02-28T06:06:57;3.40;99.90
20732;DHT22;10527;52.124;5.196;2023-02-28T06:09:24;3.40;99.90
20732;DHT22;10527;52.124;5.196;2023-02-28T06:11:51;3.40;99.90
20732;DHT22;10527;52.124;5.196;2023-02-28T06:14:20;3.40;99.90
20732;DHT22;10527;52.124;5.196;2023-02-28T06:16:48;3.40;99.90
20732;DHT22;10527;52.124;5.196;2023-02-28T06:19:15;3.40;99.90
20732;DHT22;10527;52.124;5.196;2023-02-28T06:21:43;3.40;99.90
20732;DHT22;10527;52.124;5.196;2023-02-28T06:24:10;3.30;99.90
20732;DHT22;10527;52.124;5.196;2023-02-28T06:26:43;3.30;99.90
20732;DHT22;10527;52.124;5.196;2023-02-28T06:29:10;3.30;99.90
20732;DHT22;10527;52.124;5.196;2023-02-28T06:31:37;3.30;99.90
20732;DHT22;10527;52.124;5.196;2023-02-28T06:34:08;3.30;99.90
20732;DHT22;10527;52.124;5.196;2023-02-28T06:36:38;3.30;99.90
20732;DHT22;10527;52.124;5.196;2023-02-28T06:39:07;3.30;99.90
20732;DHT22;10527;52.124;5.196;2023-02-28T06:41:34;3.30;99.90
20732;DHT22;10527;52.124;5.196;2023-02-28T06:44:21;3.30;99.90
20732;DHT22;10527;52.124;5.196;2023-02-28T06:46:49;3.20;99.90
20732;DHT22;10527;52.124;5.196;2023-02-28T06:49:16;3.20;99.90
20732;DHT22;10527;52.124;5.196;2023-02-28T06:51:44;3.20;99.90
20732;DHT22;10527;52.124;5.196;2023-02-28T06:54:12;3.20;99.90
20732;DHT22;10527;52.124;5.196;2023-02-28T06:56:42;3.20;99.90
20732;DHT22;10527;52.124;5.196;2023-02-28T06:59:09;3.30;99.90
20732;DHT22;10527;52.124;5.196;2023-02-28T07:01:36;3.30;99.90
20732;DHT22;10527;52.124;5.196;2023-02-28T07:04:06;3.30;99.90
20732;DHT22;10527;52.124;5.196;2023-02-28T07:06:33;3.30;99.90
20732;DHT22;10527;52.124;5.196;2023-02-28T07:09:00;3.20;99.90
20732;DHT22;10527;52.124;5.196;2023-02-28T07:11:28;3.20;99.90
20732;DHT22;10527;52.124;5.196;2023-02-28T07:13:56;3.10;99.90
20732;DHT22;10527;52.124;5.196;2023-02-28T07:16:24;3.00;99.90
20732;DHT22;10527;52.124;5.196;2023-02-28T07:18:55;2.90;99.90
20732;DHT22;10527;52.124;5.196;2023-02-28T07:21:22;2.90;99.90
20732;DHT22;10527;52.124;5.196;2023-02-28T07:23:50;2.90;99.90
20732;DHT22;10527;52.124;5.196;2023-02-28T07:26:19;3.00;99.90
20732;DHT22;10527;52.124;5.196;2023-02-28T07:28:50;3.00;99.90
20732;DHT22;10527;52.124;5.196;2023-02-28T07:31:18;2.90;99.90
20732;DHT22;10527;52.124;5.196;2023-02-28T07:33:45;2.80;99.90
20732;DHT22;10527;52.124;5.196;2023-02-28T07:36:14;2.80;99.90
20732;DHT22;10527;52.124;5.196;2023-02-28T07:38:47;2.70;99.90
20732;DHT22;10527;52.124;5.196;2023-02-28T07:41:18;2.70;99.90
20732;DHT22;10527;52.124;5.196;2023-02-28T07:43:48;2.70;99.90
20732;DHT22;10527;52.124;5.196;2023-02-28T07:46:16;2.60;99.90
20732;DHT22;10527;52.124;5.196;2023-02-28T07:48:44;2.60;99.90
20732;DHT22;10527;52.124;5.196;2023-02-28T07:51:11;2.70;99.90
20732;DHT22;10527;52.124;5.196;2023-02-28T07:53:38;2.60;99.90
20732;DHT22;10527;52.124;5.196;2023-02-28T07:56:06;2.60;99.90
20732;DHT22;10527;52.124;5.196;2023-02-28T07:58:33;2.70;99.90
20732;DHT22;10527;52.124;5.196;2023-02-28T08:01:07;2.80;99.90
20732;DHT22;10527;52.124;5.196;2023-02-28T08:03:36;2.80;99.90
20732;DHT22;10527;52.124;5.196;2023-02-28T08:06:04;2.80;99.90
20732;DHT22;10527;52.124;5.196;2023-02-28T08:08:33;2.90;99.90
20732;DHT22;10527;52.124;5.196;2023-02-28T08:11:01;3.00;99.90
20732;DHT22;10527;52.124;5.196;2023-02-28T08:13:30;3.00;99.90
20732;DHT22;10527;52.124;5.196;2023-02-28T08:15:57;3.10;99.90
20732;DHT22;10527;52.124;5.196;2023-02-28T08:18:24;3.10;99.90
20732;DHT22;10527;52.124;5.196;2023-02-28T08:20:51;3.20;99.90
20732;DHT22;10527;52.124;5.196;2023-02-28T08:23:18;3.20;99.90
20732;DHT22;10527;52.124;5.196;2023-02-28T08:25:55;3.40;99.90
20732;DHT22;10527;52.124;5.196;2023-02-28T08:28:23;3.40;99.90
20732;DHT22;10527;52.124;5.196;2023-02-28T08:30:53;3.50;99.90
20732;DHT22;10527;52.124;5.196;2023-02-28T08:33:21;3.60;99.90
20732;DHT22;10527;52.124;5.196;2023-02-28T08:35:52;3.60;99.90
20732;DHT22;10527;52.124;5.196;2023-02-28T08:38:21;3.60;99.90
20732;DHT22;10527;52.124;5.196;2023-02-28T08:40:48;3.60;99.90
20732;DHT22;10527;52.124;5.196;2023-02-28T08:43:15;3.70;99.90
20732;DHT22;10527;52.124;5.196;2023-02-28T08:45:43;3.70;99.90
20732;DHT22;10527;52.124;5.196;2023-02-28T08:48:10;3.80;99.90
20732;DHT22;10527;52.124;5.196;2023-02-28T08:50:36;3.80;99.90
20732;DHT22;10527;52.124;5.196;2023-02-28T08:53:03;3.90;99.90
20732;DHT22;10527;52.124;5.196;2023-02-28T08:55:30;3.90;99.90
20732;DHT22;10527;52.124;5.196;2023-02-28T08:57:57;3.90;99.90
20732;DHT22;10527;52.124;5.196;2023-02-28T09:00:24;3.90;99.90
20732;DHT22;10527;52.124;5.196;2023-02-28T09:02:51;4.00;99.90
20732;DHT22;10527;52.124;5.196;2023-02-28T09:05:18;4.00;99.90
20732;DHT22;10527;52.124;5.196;2023-02-28T09:07:45;4.00;99.90
20732;DHT22;10527;52.124;5.196;2023-02-28T09:10:12;4.00;99.90
20732;DHT22;10527;52.124;5.196;2023-02-28T09:12:39;4.10;99.90
20732;DHT22;10527;52.124;5.196;2023-02-28T09:15:06;4.00;99.90
20732;DHT22;10527;52.124;5.196;2023-02-28T09:17:33;4.00;99.90
20732;DHT22;10527;52.124;5.196;2023-02-28T09:20:01;4.00;99.90
20732;DHT22;10527;52.124;5.196;2023-02-28T09:22:27;4.10;99.90
20732;DHT22;10527;52.124;5.196;2023-02-28T09:24:57;4.20;99.90
20732;DHT22;10527;52.124;5.196;2023-02-28T09:27:24;4.10;99.90
20732;DHT22;10527;52.124;5.196;2023-02-28T09:29:51;4.10;99.90
20732;DHT22;10527;52.124;5.196;2023-02-28T09:32:18;4.10;99.90
20732;DHT22;10527;52.124;5.196;2023-02-28T09:34:45;4.00;99.90
20732;DHT22;10527;52.124;5.196;2023-02-28T09:37:11;4.10;99.90
20732;DHT22;10527;52.124;5.196;2023-02-28T09:39:38;4.10;99.90
20732;DHT22;10527;52.124;5.196;2023-02-28T09:42:05;4.10;99.90
20732;DHT22;10527;52.124;5.196;2023-02-28T09:44:43;4.20;99.90
20732;DHT22;10527;52.124;5.196;2023-02-28T09:47:36;4.40;99.90
20732;DHT22;10527;52.124;5.196;2023-02-28T09:52:48;4.60;99.90
20732;DHT22;10527;52.124;5.196;2023-02-28T09:55:26;4.70;99.90
20732;DHT22;10527;52.124;5.196;2023-02-28T09:58:45;4.60;99.90
20732;DHT22;10527;52.124;5.196;2023-02-28T10:08:07;5.00;99.90
20732;DHT22;10527;52.124;5.196;2023-02-28T10:10:42;5.30;99.90
20732;DHT22;10527;52.124;5.196;2023-02-28T10:13:34;5.30;99.90
20732;DHT22;10527;52.124;5.196;2023-02-28T10:16:17;5.40;99.90
20732;DHT22;10527;52.124;5.196;2023-02-28T10:19:08;5.40;99.90
20732;DHT22;10527;52.124;5.196;2023-02-28T10:21:47;5.40;99.90
20732;DHT22;10527;52.124;5.196;2023-02-28T10:24:40;5.30;99.90
20732;DHT22;10527;52.124;5.196;2023-02-28T10:29:57;5.40;99.90
20732;DHT22;10527;52.124;5.196;2023-02-28T10:32:30;5.40;99.90
20732;DHT22;10527;52.124;5.196;2023-02-28T10:37:50;5.50;99.90
20732;DHT22;10527;52.124;5.196;2023-02-28T10:40:27;5.70;99.90
20732;DHT22;10527;52.124;5.196;2023-02-28T10:51:10;6.40;99.90
20732;DHT22;10527;52.124;5.196;2023-02-28T10:56:28;7.00;99.90
20732;DHT22;10527;52.124;5.196;2023-02-28T10:59:27;7.00;99.90
20732;DHT22;10527;52.124;5.196;2023-02-28T11:01:56;6.60;99.90
20732;DHT22;10527;52.124;5.196;2023-02-28T11:07:04;6.60;99.90
20732;DHT22;10527;52.124;5.196;2023-02-28T11:09:39;6.70;99.90
20732;DHT22;10527;52.124;5.196;2023-02-28T11:14:56;6.90;99.90
20732;DHT22;10527;52.124;5.196;2023-02-28T11:17:28;6.80;99.90
20732;DHT22;10527;52.124;5.196;2023-02-28T11:20:06;6.90;99.90
20732;DHT22;10527;52.124;5.196;2023-02-28T11:22:46;7.10;99.90
20732;DHT22;10527;52.124;5.196;2023-02-28T11:25:23;7.10;99.90
20732;DHT22;10527;52.124;5.196;2023-02-28T11:27:55;7.40;99.90
20732;DHT22;10527;52.124;5.196;2023-02-28T11:30:41;7.40;99.90
20732;DHT22;10527;52.124;5.196;2023-02-28T11:33:22;7.40;99.90
20732;DHT22;10527;52.124;5.196;2023-02-28T11:36:29;7.50;99.90
20732;DHT22;10527;52.124;5.196;2023-02-28T11:39:09;7.50;99.90
20732;DHT22;10527;52.124;5.196;2023-02-28T11:41:48;7.40;99.90
20732;DHT22;10527;52.124;5.196;2023-02-28T11:50:42;7.70;99.90
20732;DHT22;10527;52.124;5.196;2023-02-28T11:53:35;7.70;99.90
20732;DHT22;10527;52.124;5.196;2023-02-28T11:56:23;7.70;99.90
20732;DHT22;10527;52.124;5.196;2023-02-28T12:05:27;7.80;99.90
20732;DHT22;10527;52.124;5.196;2023-02-28T12:08:26;7.80;99.90
20732;DHT22;10527;52.124;5.196;2023-02-28T12:11:39;7.80;99.90
20732;DHT22;10527;52.124;5.196;2023-02-28T12:32:21;8.00;99.90
20732;DHT22;10527;52.124;5.196;2023-02-28T12:35:00;8.20;99.90
20732;DHT22;10527;52.124;5.196;2023-02-28T12:37:36;8.20;99.90
20732;DHT22;10527;52.124;5.196;2023-02-28T12:40:16;8.30;99.90
20732;DHT22;10527;52.124;5.196;2023-02-28T12:42:58;8.20;99.90
20732;DHT22;10527;52.124;5.196;2023-02-28T12:46:03;8.20;99.90
20732;DHT22;10527;52.124;5.196;2023-02-28T12:51:08;8.30;99.90
20732;DHT22;10527;52.124;5.196;2023-02-28T12:57:24;8.20;99.90
20732;DHT22;10527;52.124;5.196;2023-02-28T13:00:04;8.30;99.90
20732;DHT22;10527;52.124;5.196;2023-02-28T13:05:50;8.40;99.90
20732;DHT22;10527;52.124;5.196;2023-02-28T13:09:02;8.40;99.90
20732;DHT22;10527;52.124;5.196;2023-02-28T13:11:52;8.50;99.90
20732;DHT22;10527;52.124;5.196;2023-02-28T13:17:11;8.50;99.90
20732;DHT22;10527;52.124;5.196;2023-02-28T13:19:58;8.50;99.90
20732;DHT22;10527;52.124;5.196;2023-02-28T13:24:55;8.60;99.90
20732;DHT22;10527;52.124;5.196;2023-02-28T13:27:38;8.50;99.90
20732;DHT22;10527;52.124;5.196;2023-02-28T13:33:24;8.60;99.90
20732;DHT22;10527;52.124;5.196;2023-02-28T13:36:27;8.70;99.90
20732;DHT22;10527;52.124;5.196;2023-02-28T13:39:03;8.60;99.90
20732;DHT22;10527;52.124;5.196;2023-02-28T13:41:50;8.70;99.90
20732;DHT22;10527;52.124;5.196;2023-02-28T13:51:52;8.70;99.90
20732;DHT22;10527;52.124;5.196;2023-02-28T13:54:50;8.70;99.90
20732;DHT22;10527;52.124;5.196;2023-02-28T13:58:03;8.80;99.90
20732;DHT22;10527;52.124;5.196;2023-02-28T14:01:14;8.90;99.90
20732;DHT22;10527;52.124;5.196;2023-02-28T14:07:40;9.00;99.90
20732;DHT22;10527;52.124;5.196;2023-02-28T14:10:25;8.90;99.90
20732;DHT22;10527;52.124;5.196;2023-02-28T14:15:58;8.90;99.90
20732;DHT22;10527;52.124;5.196;2023-02-28T14:18:33;9.10;99.90
20732;DHT22;10527;52.124;5.196;2023-02-28T14:24:20;9.10;99.90
20732;DHT22;10527;52.124;5.196;2023-02-28T14:27:29;9.00;99.90
20732;DHT22;10527;52.124;5.196;2023-02-28T14:36:35;9.10;99.90
20732;DHT22;10527;52.124;5.196;2023-02-28T14:39:19;9.20;99.90
20732;DHT22;10527;52.124;5.196;2023-02-28T14:41:48;9.20;99.90
20732;DHT22;10527;52.124;5.196;2023-02-28T14:44:18;9.10;99.90
20732;DHT22;10527;52.124;5.196;2023-02-28T14:46:56;9.10;99.90
20732;DHT22;10527;52.124;5.196;2023-02-28T14:49:35;9.00;99.90
20732;DHT22;10527;52.124;5.196;2023-02-28T14:52:19;9.10;99.90
20732;DHT22;10527;52.124;5.196;2023-02-28T14:54:56;9.20;99.90
20732;DHT22;10527;52.124;5.196;2023-02-28T14:57:29;9.20;99.90
20732;DHT22;10527;52.124;5.196;2023-02-28T15:02:38;9.10;99.90
20732;DHT22;10527;52.124;5.196;2023-02-28T15:07:48;9.30;99.90
20732;DHT22;10527;52.124;5.196;2023-02-28T15:10:27;9.20;99.90
20732;DHT22;10527;52.124;5.196;2023-02-28T15:13:01;9.20;99.90
20732;DHT22;10527;52.124;5.196;2023-02-28T15:16:01;9.20;99.90
20732;DHT22;10527;52.124;5.196;2023-02-28T15:21:08;9.20;99.90
20732;DHT22;10527;52.124;5.196;2023-02-28T15:23:40;9.30;99.90
20732;DHT22;10527;52.124;5.196;2023-02-28T15:26:16;9.30;99.90
20732;DHT22;10527;52.124;5.196;2023-02-28T15:28:51;9.40;99.90
20732;DHT22;10527;52.124;5.196;2023-02-28T15:31:31;9.30;99.90
20732;DHT22;10527;52.124;5.196;2023-02-28T15:34:40;9.30;99.90
20732;DHT22;10527;52.124;5.196;2023-02-28T15:42:41;9.20;99.90
20732;DHT22;10527;52.124;5.196;2023-02-28T15:45:33;9.20;99.90
20732;DHT22;10527;52.124;5.196;2023-02-28T15:48:18;9.20;99.90
20732;DHT22;10527;52.124;5.196;2023-02-28T15:50:57;9.10;99.90
20732;DHT22;10527;52.124;5.196;2023-02-28T15:53:32;9.10;99.90
20732;DHT22;10527;52.124;5.196;2023-02-28T15:56:05;9.10;99.90
20732;DHT22;10527;52.124;5.196;2023-02-28T15:58:39;9.10;99.90
20732;DHT22;10527;52.124;5.196;2023-02-28T16:01:29;9.10;99.90
20732;DHT22;10527;52.124;5.196;2023-02-28T16:04:14;9.10;99.90
20732;DHT22;10527;52.124;5.196;2023-02-28T16:07:00;9.00;99.90
20732;DHT22;10527;52.124;5.196;2023-02-28T16:09:28;8.90;99.90
20732;DHT22;10527;52.124;5.196;2023-02-28T16:12:01;8.90;99.90
20732;DHT22;10527;52.124;5.196;2023-02-28T16:14:30;8.90;99.90
20732;DHT22;10527;52.124;5.196;2023-02-28T16:17:24;8.70;99.90
20732;DHT22;10527;52.124;5.196;2023-02-28T16:19:54;8.60;99.90
20732;DHT22;10527;52.124;5.196;2023-02-28T16:22:22;8.60;99.90
20732;DHT22;10527;52.124;5.196;2023-02-28T16:24:49;8.50;99.90
20732;DHT22;10527;52.124;5.196;2023-02-28T16:27:25;8.30;99.90
20732;DHT22;10527;52.124;5.196;2023-02-28T16:29:59;8.30;99.90
20732;DHT22;10527;52.124;5.196;2023-02-28T16:32:27;8.10;99.90
20732;DHT22;10527;52.124;5.196;2023-02-28T16:34:58;8.10;99.90
20732;DHT22;10527;52.124;5.196;2023-02-28T16:37:26;8.00;99.90
20732;DHT22;10527;52.124;5.196;2023-02-28T16:39:53;8.00;99.90
20732;DHT22;10527;52.124;5.196;2023-02-28T16:42:25;7.90;99.90
20732;DHT22;10527;52.124;5.196;2023-02-28T16:44:55;7.90;99.90
20732;DHT22;10527;52.124;5.196;2023-02-28T16:47:22;7.80;99.90
20732;DHT22;10527;52.124;5.196;2023-02-28T16:49:49;7.80;99.90
20732;DHT22;10527;52.124;5.196;2023-02-28T16:52:16;7.70;99.90
20732;DHT22;10527;52.124;5.196;2023-02-28T16:54:42;7.70;99.90
20732;DHT22;10527;52.124;5.196;2023-02-28T16:57:19;7.70;99.90
20732;DHT22;10527;52.124;5.196;2023-02-28T16:59:49;7.60;99.90
20732;DHT22;10527;52.124;5.196;2023-02-28T17:02:18;7.50;99.90
20732;DHT22;10527;52.124;5.196;2023-02-28T17:04:46;7.60;99.90
20732;DHT22;10527;52.124;5.196;2023-02-28T17:07:15;7.50;99.90
20732;DHT22;10527;52.124;5.196;2023-02-28T17:09:43;7.50;99.90
20732;DHT22;10527;52.124;5.196;2023-02-28T17:12:15;7.40;99.90
20732;DHT22;10527;52.124;5.196;2023-02-28T17:14:45;7.40;99.90
20732;DHT22;10527;52.124;5.196;2023-02-28T17:17:18;7.50;99.90
20732;DHT22;10527;52.124;5.196;2023-02-28T17:19:48;7.40;99.90
20732;DHT22;10527;52.124;5.196;2023-02-28T17:22:14;7.30;99.90
20732;DHT22;10527;52.124;5.196;2023-02-28T17:24:41;7.30;99.90
20732;DHT22;10527;52.124;5.196;2023-02-28T17:27:12;7.30;99.90
20732;DHT22;10527;52.124;5.196;2023-02-28T17:29:39;7.20;99.90
20732;DHT22;10527;52.124;5.196;2023-02-28T17:32:20;7.20;99.90
20732;DHT22;10527;52.124;5.196;2023-02-28T17:34:47;7.10;99.90
20732;DHT22;10527;52.124;5.196;2023-02-28T17:37:14;7.20;99.90
20732;DHT22;10527;52.124;5.196;2023-02-28T17:39:41;7.10;99.90
20732;DHT22;10527;52.124;5.196;2023-02-28T17:42:07;7.00;99.90
20732;DHT22;10527;52.124;5.196;2023-02-28T17:44:34;7.00;99.90
20732;DHT22;10527;52.124;5.196;2023-02-28T17:47:01;6.90;99.90
20732;DHT22;10527;52.124;5.196;2023-02-28T17:49:31;6.80;99.90
20732;DHT22;10527;52.124;5.196;2023-02-28T17:51:59;6.90;99.90
20732;DHT22;10527;52.124;5.196;2023-02-28T17:54:26;6.80;99.90
20732;DHT22;10527;52.124;5.196;2023-02-28T17:56:53;6.70;99.90
20732;DHT22;10527;52.124;5.196;2023-02-28T17:59:19;6.60;99.90
20732;DHT22;10527;52.124;5.196;2023-02-28T18:01:46;6.60;99.90
20732;DHT22;10527;52.124;5.196;2023-02-28T18:04:13;6.50;99.90
20732;DHT22;10527;52.124;5.196;2023-02-28T18:06:44;6.40;99.90
20732;DHT22;10527;52.124;5.196;2023-02-28T18:09:21;6.40;99.90
20732;DHT22;10527;52.124;5.196;2023-02-28T18:11:55;6.40;99.90
20732;DHT22;10527;52.124;5.196;2023-02-28T18:14:25;6.30;99.90
20732;DHT22;10527;52.124;5.196;2023-02-28T18:16:53;6.30;99.90
20732;DHT22;10527;52.124;5.196;2023-02-28T18:19:24;6.30;99.90
20732;DHT22;10527;52.124;5.196;2023-02-28T18:21:52;6.30;99.90
20732;DHT22;10527;52.124;5.196;2023-02-28T18:24:21;6.30;99.90
20732;DHT22;10527;52.124;5.196;2023-02-28T18:26:50;6.30;99.90
20732;DHT22;10527;52.124;5.196;2023-02-28T18:29:24;6.30;99.90
20732;DHT22;10527;52.124;5.196;2023-02-28T18:31:55;6.30;99.90
20732;DHT22;10527;52.124;5.196;2023-02-28T18:34:23;6.20;99.90
20732;DHT22;10527;52.124;5.196;2023-02-28T18:36:51;6.10;99.90
20732;DHT22;10527;52.124;5.196;2023-02-28T18:39:19;6.10;99.90
20732;DHT22;10527;52.124;5.196;2023-02-28T18:41:49;6.10;99.90
20732;DHT22;10527;52.124;5.196;2023-02-28T18:44:16;6.00;99.90
20732;DHT22;10527;52.124;5.196;2023-02-28T18:46:47;6.00;99.90
20732;DHT22;10527;52.124;5.196;2023-02-28T18:49:15;6.00;99.90
20732;DHT22;10527;52.124;5.196;2023-02-28T18:51:43;5.90;99.90
20732;DHT22;10527;52.124;5.196;2023-02-28T18:54:13;5.90;99.90
20732;DHT22;10527;52.124;5.196;2023-02-28T18:56:43;5.80;99.90
20732;DHT22;10527;52.124;5.196;2023-02-28T18:59:11;5.80;99.90